Miami Beach,

4:09 AM EST on December 25, 2014 (GMT -0500)
Malhotra Observatory | Change Station
CLOSE
Current Station
Personal Weather Station
Location: Miami Beach, FL
Elevation: 6 ft
Nearby Weather Stations

Elev 6 ft 25.83 °N, 80.13 °W | Updated 3 seconds ago

Rain
Rain Mist
73.7 °F
Feels Like 72 °F
N
0.0
Wind Variable Wind from North
Gusts 0.0 mph

Today
High -- | Low -- °F
--% Chance of Precip.
Yesterday
High -- | Low -- °F
Precip. -- in
7:03 AM 5:35 PM
Waxing Crescent, 15% visible
Pressure 30.03 in
Visibility 3.0 miles
Clouds Mostly Cloudy 900 ft
Mostly Cloudy 2500 ft
Overcast 6500 ft
Heat Index 72 °F
Dew Point 71 °F
Humidity 90%
Rainfall 0.05 in
Snow Depth Not available.
UV 0 out of 12
Pollen 2.60 out of 12
Air Quality Not available.
Flu Activity Not available.
METAR KMIA 250853Z 27008KT 3SM RA BR BKN009 BKN025CB OVC065 23/22 A3003 RMK AO2 SLP168 CB W-NW MOV NE P0012 60013 T02280217 53017

More Conditions Fewer Conditions

Pressure 30.03 in
Visibility 3.0 miles
Clouds Mostly Cloudy 900 ft
Mostly Cloudy 2500 ft
Overcast 6500 ft
Heat Index 72 °F
Dew Point 71 °F
Humidity 90%
Rainfall 0.05 in
Snow Depth Not available.
UV 0 out of 12
Pollen 2.60 out of 12
Air Quality Not available.
Flu Activity Not available.
METAR KMIA 250853Z 27008KT 3SM RA BR BKN009 BKN025CB OVC065 23/22 A3003 RMK AO2 SLP168 CB W-NW MOV NE P0012 60013 T02280217 53017

More Conditions Fewer Conditions

10-Day Weather Forecast

Almanac

Astronomy

Dec. 25, 2014 Rise Set
Actual Time
Civil Twilight
Nautical Twilight
Astronomical Twilight
Moon
Length of Visible Light
Length of Day
Tomorrow will be .
, % of the Moon is Illuminated

Today's Extremes

State Highs State Lows

Community

WunderPhotos

Upload Photos

1,780,250 photos uploaded!

WunderBlogs® & News

Nearby

Air Quality

  Air Quality AQ Index Pollutant
Not available.

Snow Depth

Station Depth Elevation

Earthquake Activity

City Distance Mag. Time & Date
Minimum magnitude displayed is 2.5.

Coastal Water Temperatures

Place Temperature

Nearby Weather Stations